sensor_id;sensor_type;location;lat;lon;timestamp;P1;durP1;ratioP1;P2;durP2;ratioP2
14965;SDS011;7577;45.226;5.798;2023-06-19T00:00:14;8.47;;;7.57;;
14965;SDS011;7577;45.226;5.798;2023-06-19T00:02:44;8.43;;;7.53;;
14965;SDS011;7577;45.226;5.798;2023-06-19T00:05:15;7.90;;;7.10;;
14965;SDS011;7577;45.226;5.798;2023-06-19T00:07:53;8.67;;;7.00;;
14965;SDS011;7577;45.226;5.798;2023-06-19T00:10:24;7.73;;;6.77;;
14965;SDS011;7577;45.226;5.798;2023-06-19T00:13:02;9.40;;;6.93;;
14965;SDS011;7577;45.226;5.798;2023-06-19T00:15:31;7.40;;;6.43;;
14965;SDS011;7577;45.226;5.798;2023-06-19T00:18:01;6.77;;;6.07;;
14965;SDS011;7577;45.226;5.798;2023-06-19T00:20:39;7.40;;;6.57;;
14965;SDS011;7577;45.226;5.798;2023-06-19T00:23:11;6.80;;;6.03;;
14965;SDS011;7577;45.226;5.798;2023-06-19T00:25:43;7.37;;;6.63;;
14965;SDS011;7577;45.226;5.798;2023-06-19T00:28:13;6.77;;;6.07;;
14965;SDS011;7577;45.226;5.798;2023-06-19T00:30:50;6.93;;;6.23;;
14965;SDS011;7577;45.226;5.798;2023-06-19T00:33:20;6.67;;;6.07;;
14965;SDS011;7577;45.226;5.798;2023-06-19T00:36:01;7.23;;;6.43;;
14965;SDS011;7577;45.226;5.798;2023-06-19T00:38:33;7.57;;;6.13;;
14965;SDS011;7577;45.226;5.798;2023-06-19T00:41:03;7.20;;;6.50;;
14965;SDS011;7577;45.226;5.798;2023-06-19T00:43:33;6.93;;;6.23;;
14965;SDS011;7577;45.226;5.798;2023-06-19T00:46:04;6.97;;;6.23;;
14965;SDS011;7577;45.226;5.798;2023-06-19T00:48:34;6.60;;;5.90;;
14965;SDS011;7577;45.226;5.798;2023-06-19T00:51:05;6.37;;;5.30;;
14965;SDS011;7577;45.226;5.798;2023-06-19T00:53:36;6.77;;;6.17;;
14965;SDS011;7577;45.226;5.798;2023-06-19T00:56:15;6.03;;;5.43;;
14965;SDS011;7577;45.226;5.798;2023-06-19T00:58:45;5.97;;;5.37;;
14965;SDS011;7577;45.226;5.798;2023-06-19T01:01:23;5.63;;;5.03;;
14965;SDS011;7577;45.226;5.798;2023-06-19T01:03:54;6.57;;;5.77;;
14965;SDS011;7577;45.226;5.798;2023-06-19T01:06:24;5.53;;;5.03;;
14965;SDS011;7577;45.226;5.798;2023-06-19T01:09:04;5.77;;;5.27;;
14965;SDS011;7577;45.226;5.798;2023-06-19T01:11:46;6.40;;;5.27;;
14965;SDS011;7577;45.226;5.798;2023-06-19T01:14:19;5.87;;;5.27;;
14965;SDS011;7577;45.226;5.798;2023-06-19T01:16:51;6.23;;;5.63;;
14965;SDS011;7577;45.226;5.798;2023-06-19T01:19:22;6.00;;;5.20;;
14965;SDS011;7577;45.226;5.798;2023-06-19T01:21:53;6.37;;;5.60;;
14965;SDS011;7577;45.226;5.798;2023-06-19T01:24:31;5.63;;;5.13;;
14965;SDS011;7577;45.226;5.798;2023-06-19T01:27:01;5.83;;;4.83;;
14965;SDS011;7577;45.226;5.798;2023-06-19T01:29:32;5.57;;;4.97;;
14965;SDS011;7577;45.226;5.798;2023-06-19T01:32:04;5.93;;;5.43;;
14965;SDS011;7577;45.226;5.798;2023-06-19T01:34:36;5.53;;;4.87;;
14965;SDS011;7577;45.226;5.798;2023-06-19T01:37:07;5.90;;;5.30;;
14965;SDS011;7577;45.226;5.798;2023-06-19T01:39:46;6.03;;;5.43;;
14965;SDS011;7577;45.226;5.798;2023-06-19T01:42:17;5.93;;;5.30;;
14965;SDS011;7577;45.226;5.798;2023-06-19T01:44:55;5.80;;;5.20;;
14965;SDS011;7577;45.226;5.798;2023-06-19T01:47:26;5.33;;;4.80;;
14965;SDS011;7577;45.226;5.798;2023-06-19T01:49:56;4.90;;;4.47;;
14965;SDS011;7577;45.226;5.798;2023-06-19T01:52:33;5.50;;;5.00;;
14965;SDS011;7577;45.226;5.798;2023-06-19T01:55:04;4.57;;;4.17;;
14965;SDS011;7577;45.226;5.798;2023-06-19T01:57:36;5.37;;;4.60;;
14965;SDS011;7577;45.226;5.798;2023-06-19T02:00:07;5.63;;;4.50;;
14965;SDS011;7577;45.226;5.798;2023-06-19T02:02:38;5.30;;;4.80;;
14965;SDS011;7577;45.226;5.798;2023-06-19T02:05:08;4.83;;;4.40;;
14965;SDS011;7577;45.226;5.798;2023-06-19T02:07:46;5.00;;;4.60;;
14965;SDS011;7577;45.226;5.798;2023-06-19T02:10:16;5.00;;;4.60;;
14965;SDS011;7577;45.226;5.798;2023-06-19T02:12:46;5.20;;;4.70;;
14965;SDS011;7577;45.226;5.798;2023-06-19T02:15:16;5.23;;;4.73;;
14965;SDS011;7577;45.226;5.798;2023-06-19T02:17:54;5.10;;;4.60;;
14965;SDS011;7577;45.226;5.798;2023-06-19T02:20:24;5.43;;;4.60;;
14965;SDS011;7577;45.226;5.798;2023-06-19T02:23:02;5.37;;;4.87;;
14965;SDS011;7577;45.226;5.798;2023-06-19T02:25:32;6.83;;;4.70;;
14965;SDS011;7577;45.226;5.798;2023-06-19T02:28:10;4.60;;;4.20;;
14965;SDS011;7577;45.226;5.798;2023-06-19T02:30:39;6.37;;;4.83;;
14965;SDS011;7577;45.226;5.798;2023-06-19T02:33:17;5.43;;;4.93;;
14965;SDS011;7577;45.226;5.798;2023-06-19T02:35:47;5.70;;;4.33;;
14965;SDS011;7577;45.226;5.798;2023-06-19T02:38:25;5.13;;;4.63;;
14965;SDS011;7577;45.226;5.798;2023-06-19T02:40:56;4.80;;;4.03;;
14965;SDS011;7577;45.226;5.798;2023-06-19T02:43:28;4.90;;;4.50;;
14965;SDS011;7577;45.226;5.798;2023-06-19T02:46:06;4.83;;;4.37;;
14965;SDS011;7577;45.226;5.798;2023-06-19T02:48:36;4.47;;;4.07;;
14965;SDS011;7577;45.226;5.798;2023-06-19T02:51:06;5.10;;;4.60;;
14965;SDS011;7577;45.226;5.798;2023-06-19T02:53:36;4.83;;;4.37;;
14965;SDS011;7577;45.226;5.798;2023-06-19T02:56:06;5.13;;;4.63;;
14965;SDS011;7577;45.226;5.798;2023-06-19T02:58:36;4.37;;;3.97;;
14965;SDS011;7577;45.226;5.798;2023-06-19T03:01:06;4.43;;;4.13;;
14965;SDS011;7577;45.226;5.798;2023-06-19T03:03:36;5.73;;;4.40;;
14965;SDS011;7577;45.226;5.798;2023-06-19T03:06:08;5.07;;;4.60;;
14965;SDS011;7577;45.226;5.798;2023-06-19T03:08:48;4.77;;;4.37;;
14965;SDS011;7577;45.226;5.798;2023-06-19T03:11:19;5.10;;;4.60;;
14965;SDS011;7577;45.226;5.798;2023-06-19T03:13:50;5.73;;;4.17;;
14965;SDS011;7577;45.226;5.798;2023-06-19T03:16:20;5.03;;;4.53;;
14965;SDS011;7577;45.226;5.798;2023-06-19T03:19:02;5.00;;;4.50;;
14965;SDS011;7577;45.226;5.798;2023-06-19T03:21:32;4.50;;;4.10;;
14965;SDS011;7577;45.226;5.798;2023-06-19T03:24:04;4.93;;;4.53;;
14965;SDS011;7577;45.226;5.798;2023-06-19T03:26:42;4.87;;;4.27;;
14965;SDS011;7577;45.226;5.798;2023-06-19T03:29:12;5.17;;;4.43;;
14965;SDS011;7577;45.226;5.798;2023-06-19T03:31:42;4.27;;;3.87;;
14965;SDS011;7577;45.226;5.798;2023-06-19T03:34:20;5.07;;;4.57;;
14965;SDS011;7577;45.226;5.798;2023-06-19T03:36:50;4.43;;;4.03;;
14965;SDS011;7577;45.226;5.798;2023-06-19T03:39:28;4.67;;;4.13;;
14965;SDS011;7577;45.226;5.798;2023-06-19T03:41:58;4.40;;;4.00;;
14965;SDS011;7577;45.226;5.798;2023-06-19T03:44:28;4.70;;;4.30;;
14965;SDS011;7577;45.226;5.798;2023-06-19T03:47:06;5.63;;;4.27;;
14965;SDS011;7577;45.226;5.798;2023-06-19T03:49:36;5.57;;;4.67;;
14965;SDS011;7577;45.226;5.798;2023-06-19T03:52:14;4.93;;;4.43;;
14965;SDS011;7577;45.226;5.798;2023-06-19T03:54:44;4.87;;;3.93;;
14965;SDS011;7577;45.226;5.798;2023-06-19T03:57:14;4.47;;;4.07;;
14965;SDS011;7577;45.226;5.798;2023-06-19T03:59:43;6.10;;;4.43;;
14965;SDS011;7577;45.226;5.798;2023-06-19T04:02:14;4.40;;;4.00;;
14965;SDS011;7577;45.226;5.798;2023-06-19T04:04:52;4.40;;;4.00;;
14965;SDS011;7577;45.226;5.798;2023-06-19T04:07:22;5.20;;;4.70;;
14965;SDS011;7577;45.226;5.798;2023-06-19T04:09:52;4.50;;;4.10;;
14965;SDS011;7577;45.226;5.798;2023-06-19T04:12:22;4.67;;;4.10;;
14965;SDS011;7577;45.226;5.798;2023-06-19T04:14:52;4.90;;;4.50;;
14965;SDS011;7577;45.226;5.798;2023-06-19T04:17:30;5.37;;;4.10;;
14965;SDS011;7577;45.226;5.798;2023-06-19T04:20:00;5.90;;;4.03;;
14965;SDS011;7577;45.226;5.798;2023-06-19T04:22:34;6.13;;;4.30;;
14965;SDS011;7577;45.226;5.798;2023-06-19T04:25:05;4.77;;;4.30;;
14965;SDS011;7577;45.226;5.798;2023-06-19T04:27:47;4.40;;;3.93;;
14965;SDS011;7577;45.226;5.798;2023-06-19T04:30:17;5.47;;;4.60;;
14965;SDS011;7577;45.226;5.798;2023-06-19T04:32:55;4.40;;;4.00;;
14965;SDS011;7577;45.226;5.798;2023-06-19T04:35:25;4.67;;;4.10;;
14965;SDS011;7577;45.226;5.798;2023-06-19T04:37:56;5.47;;;4.20;;
14965;SDS011;7577;45.226;5.798;2023-06-19T04:40:28;5.17;;;4.10;;
14965;SDS011;7577;45.226;5.798;2023-06-19T04:42:59;5.70;;;4.07;;
14965;SDS011;7577;45.226;5.798;2023-06-19T04:45:32;6.47;;;4.30;;
14965;SDS011;7577;45.226;5.798;2023-06-19T04:48:02;6.27;;;4.80;;
14965;SDS011;7577;45.226;5.798;2023-06-19T04:50:33;5.30;;;4.50;;
14965;SDS011;7577;45.226;5.798;2023-06-19T04:53:03;6.47;;;4.17;;
14965;SDS011;7577;45.226;5.798;2023-06-19T04:55:41;7.80;;;4.40;;
14965;SDS011;7577;45.226;5.798;2023-06-19T04:58:12;5.40;;;4.43;;
14965;SDS011;7577;45.226;5.798;2023-06-19T05:00:42;6.33;;;4.40;;
14965;SDS011;7577;45.226;5.798;2023-06-19T05:03:12;5.67;;;4.43;;
14965;SDS011;7577;45.226;5.798;2023-06-19T05:05:44;10.03;;;4.20;;
14965;SDS011;7577;45.226;5.798;2023-06-19T05:08:15;5.87;;;4.47;;
14965;SDS011;7577;45.226;5.798;2023-06-19T05:10:45;6.77;;;4.73;;
14965;SDS011;7577;45.226;5.798;2023-06-19T05:13:15;5.60;;;4.40;;
14965;SDS011;7577;45.226;5.798;2023-06-19T05:15:46;4.93;;;4.10;;
14965;SDS011;7577;45.226;5.798;2023-06-19T05:18:16;4.37;;;3.87;;
14965;SDS011;7577;45.226;5.798;2023-06-19T05:20:46;6.43;;;4.20;;
14965;SDS011;7577;45.226;5.798;2023-06-19T05:23:16;7.90;;;4.40;;
14965;SDS011;7577;45.226;5.798;2023-06-19T05:25:46;4.33;;;4.00;;
14965;SDS011;7577;45.226;5.798;2023-06-19T05:28:24;4.50;;;4.10;;
14965;SDS011;7577;45.226;5.798;2023-06-19T05:30:54;5.53;;;4.27;;
14965;SDS011;7577;45.226;5.798;2023-06-19T05:33:24;4.97;;;4.27;;
14965;SDS011;7577;45.226;5.798;2023-06-19T05:35:55;7.87;;;4.50;;
14965;SDS011;7577;45.226;5.798;2023-06-19T05:38:25;5.90;;;4.57;;
14965;SDS011;7577;45.226;5.798;2023-06-19T05:40:56;6.80;;;4.60;;
14965;SDS011;7577;45.226;5.798;2023-06-19T05:43:27;4.73;;;4.30;;
14965;SDS011;7577;45.226;5.798;2023-06-19T05:45:57;5.53;;;4.30;;
14965;SDS011;7577;45.226;5.798;2023-06-19T05:48:27;6.63;;;4.37;;
14965;SDS011;7577;45.226;5.798;2023-06-19T05:50:57;5.33;;;4.00;;
14965;SDS011;7577;45.226;5.798;2023-06-19T05:53:27;6.10;;;4.57;;
14965;SDS011;7577;45.226;5.798;2023-06-19T05:55:59;5.77;;;4.57;;
14965;SDS011;7577;45.226;5.798;2023-06-19T05:58:29;5.67;;;4.70;;
14965;SDS011;7577;45.226;5.798;2023-06-19T06:01:00;9.10;;;4.93;;
14965;SDS011;7577;45.226;5.798;2023-06-19T06:03:30;5.73;;;4.57;;
14965;SDS011;7577;45.226;5.798;2023-06-19T06:06:00;6.07;;;4.30;;
14965;SDS011;7577;45.226;5.798;2023-06-19T06:08:38;5.87;;;4.23;;
14965;SDS011;7577;45.226;5.798;2023-06-19T06:11:08;6.53;;;4.33;;
14965;SDS011;7577;45.226;5.798;2023-06-19T06:13:38;5.70;;;4.20;;
14965;SDS011;7577;45.226;5.798;2023-06-19T06:16:08;7.70;;;4.47;;
14965;SDS011;7577;45.226;5.798;2023-06-19T06:18:38;5.73;;;4.40;;
14965;SDS011;7577;45.226;5.798;2023-06-19T06:21:08;5.70;;;4.53;;
14965;SDS011;7577;45.226;5.798;2023-06-19T06:23:41;5.60;;;4.43;;
14965;SDS011;7577;45.226;5.798;2023-06-19T06:26:12;5.13;;;4.37;;
14965;SDS011;7577;45.226;5.798;2023-06-19T06:28:49;5.83;;;4.07;;
14965;SDS011;7577;45.226;5.798;2023-06-19T06:31:21;6.20;;;4.17;;
14965;SDS011;7577;45.226;5.798;2023-06-19T06:33:51;5.87;;;4.20;;
14965;SDS011;7577;45.226;5.798;2023-06-19T06:36:21;6.00;;;4.63;;
14965;SDS011;7577;45.226;5.798;2023-06-19T06:38:52;5.07;;;4.57;;
14965;SDS011;7577;45.226;5.798;2023-06-19T06:41:22;5.17;;;4.40;;
14965;SDS011;7577;45.226;5.798;2023-06-19T06:43:52;5.67;;;4.27;;
14965;SDS011;7577;45.226;5.798;2023-06-19T06:46:23;6.77;;;4.40;;
14965;SDS011;7577;45.226;5.798;2023-06-19T06:48:53;9.47;;;4.90;;
14965;SDS011;7577;45.226;5.798;2023-06-19T06:51:23;5.30;;;4.67;;
14965;SDS011;7577;45.226;5.798;2023-06-19T06:53:53;7.07;;;4.37;;
14965;SDS011;7577;45.226;5.798;2023-06-19T06:56:23;5.07;;;4.47;;
14965;SDS011;7577;45.226;5.798;2023-06-19T06:58:53;8.43;;;4.90;;
14965;SDS011;7577;45.226;5.798;2023-06-19T07:01:23;6.33;;;5.07;;
14965;SDS011;7577;45.226;5.798;2023-06-19T07:03:54;6.07;;;4.67;;
14965;SDS011;7577;45.226;5.798;2023-06-19T07:06:24;6.93;;;4.93;;
14965;SDS011;7577;45.226;5.798;2023-06-19T07:09:03;5.93;;;4.67;;
14965;SDS011;7577;45.226;5.798;2023-06-19T07:11:33;6.13;;;4.40;;
14965;SDS011;7577;45.226;5.798;2023-06-19T07:14:04;8.90;;;5.00;;
14965;SDS011;7577;45.226;5.798;2023-06-19T07:16:33;6.30;;;4.43;;
14965;SDS011;7577;45.226;5.798;2023-06-19T07:19:03;7.93;;;4.73;;
14965;SDS011;7577;45.226;5.798;2023-06-19T07:21:33;6.37;;;4.43;;
14965;SDS011;7577;45.226;5.798;2023-06-19T07:24:04;8.70;;;5.30;;
14965;SDS011;7577;45.226;5.798;2023-06-19T07:26:42;8.07;;;4.60;;
14965;SDS011;7577;45.226;5.798;2023-06-19T07:29:13;8.23;;;5.20;;
14965;SDS011;7577;45.226;5.798;2023-06-19T07:31:51;9.07;;;5.97;;
14965;SDS011;7577;45.226;5.798;2023-06-19T07:34:21;6.87;;;5.37;;
14965;SDS011;7577;45.226;5.798;2023-06-19T07:36:51;9.07;;;5.43;;
14965;SDS011;7577;45.226;5.798;2023-06-19T07:39:21;7.00;;;5.10;;
14965;SDS011;7577;45.226;5.798;2023-06-19T07:41:51;8.97;;;4.87;;
14965;SDS011;7577;45.226;5.798;2023-06-19T07:44:21;8.00;;;5.43;;
14965;SDS011;7577;45.226;5.798;2023-06-19T07:46:51;7.00;;;4.90;;
14965;SDS011;7577;45.226;5.798;2023-06-19T07:49:21;6.40;;;4.67;;
14965;SDS011;7577;45.226;5.798;2023-06-19T07:51:51;8.27;;;5.80;;
14965;SDS011;7577;45.226;5.798;2023-06-19T07:54:21;7.37;;;5.47;;
14965;SDS011;7577;45.226;5.798;2023-06-19T07:57:02;8.70;;;5.80;;
14965;SDS011;7577;45.226;5.798;2023-06-19T07:59:33;9.00;;;5.37;;
14965;SDS011;7577;45.226;5.798;2023-06-19T08:02:04;8.70;;;5.07;;
14965;SDS011;7577;45.226;5.798;2023-06-19T08:04:42;7.60;;;5.00;;
14965;SDS011;7577;45.226;5.798;2023-06-19T08:07:12;11.00;;;5.30;;
14965;SDS011;7577;45.226;5.798;2023-06-19T08:09:42;9.20;;;5.10;;
14965;SDS011;7577;45.226;5.798;2023-06-19T08:12:12;9.67;;;5.30;;
14965;SDS011;7577;45.226;5.798;2023-06-19T08:14:42;12.27;;;5.33;;
14965;SDS011;7577;45.226;5.798;2023-06-19T08:17:12;7.03;;;5.40;;
14965;SDS011;7577;45.226;5.798;2023-06-19T08:19:53;8.60;;;5.50;;
14965;SDS011;7577;45.226;5.798;2023-06-19T08:22:23;7.67;;;5.10;;
14965;SDS011;7577;45.226;5.798;2023-06-19T08:24:53;8.07;;;5.53;;
14965;SDS011;7577;45.226;5.798;2023-06-19T08:27:24;6.70;;;4.83;;
14965;SDS011;7577;45.226;5.798;2023-06-19T08:30:02;8.57;;;5.70;;
14965;SDS011;7577;45.226;5.798;2023-06-19T08:32:33;7.27;;;5.00;;
14965;SDS011;7577;45.226;5.798;2023-06-19T08:35:03;7.80;;;5.23;;
14965;SDS011;7577;45.226;5.798;2023-06-19T08:37:41;7.23;;;5.20;;
14965;SDS011;7577;45.226;5.798;2023-06-19T08:40:12;7.90;;;5.23;;
14965;SDS011;7577;45.226;5.798;2023-06-19T08:42:50;10.97;;;5.73;;
14965;SDS011;7577;45.226;5.798;2023-06-19T08:45:20;9.20;;;5.30;;
14965;SDS011;7577;45.226;5.798;2023-06-19T08:47:50;5.97;;;5.33;;
14965;SDS011;7577;45.226;5.798;2023-06-19T08:50:34;7.33;;;5.70;;
14965;SDS011;7577;45.226;5.798;2023-06-19T08:53:04;7.40;;;5.60;;
14965;SDS011;7577;45.226;5.798;2023-06-19T08:55:34;7.37;;;5.43;;
14965;SDS011;7577;45.226;5.798;2023-06-19T08:58:04;6.07;;;5.30;;
14965;SDS011;7577;45.226;5.798;2023-06-19T09:00:34;8.00;;;6.00;;
14965;SDS011;7577;45.226;5.798;2023-06-19T09:03:04;6.83;;;5.63;;
14965;SDS011;7577;45.226;5.798;2023-06-19T09:05:34;6.90;;;5.40;;
14965;SDS011;7577;45.226;5.798;2023-06-19T09:08:13;7.07;;;5.50;;
14965;SDS011;7577;45.226;5.798;2023-06-19T09:10:53;7.20;;;5.90;;
14965;SDS011;7577;45.226;5.798;2023-06-19T09:13:25;8.50;;;6.10;;
14965;SDS011;7577;45.226;5.798;2023-06-19T09:16:00;9.80;;;6.00;;
14965;SDS011;7577;45.226;5.798;2023-06-19T09:18:31;9.73;;;7.00;;
14965;SDS011;7577;45.226;5.798;2023-06-19T09:21:15;9.57;;;6.53;;
14965;SDS011;7577;45.226;5.798;2023-06-19T09:23:46;8.80;;;6.23;;
14965;SDS011;7577;45.226;5.798;2023-06-19T09:26:24;9.00;;;6.20;;
14965;SDS011;7577;45.226;5.798;2023-06-19T09:28:54;8.00;;;6.73;;
14965;SDS011;7577;45.226;5.798;2023-06-19T09:31:32;9.17;;;6.03;;
14965;SDS011;7577;45.226;5.798;2023-06-19T09:34:04;8.47;;;6.40;;
14965;SDS011;7577;45.226;5.798;2023-06-19T09:36:35;6.73;;;5.80;;
14965;SDS011;7577;45.226;5.798;2023-06-19T09:39:05;7.53;;;6.00;;
14965;SDS011;7577;45.226;5.798;2023-06-19T09:41:36;9.17;;;6.40;;
14965;SDS011;7577;45.226;5.798;2023-06-19T09:44:08;6.77;;;6.00;;
14965;SDS011;7577;45.226;5.798;2023-06-19T09:46:42;8.97;;;6.40;;
14965;SDS011;7577;45.226;5.798;2023-06-19T09:49:15;7.60;;;5.93;;
14965;SDS011;7577;45.226;5.798;2023-06-19T09:51:47;6.30;;;5.77;;
14965;SDS011;7577;45.226;5.798;2023-06-19T09:54:18;9.03;;;6.70;;
14965;SDS011;7577;45.226;5.798;2023-06-19T09:56:51;7.43;;;5.83;;
14965;SDS011;7577;45.226;5.798;2023-06-19T09:59:25;6.30;;;5.37;;
14965;SDS011;7577;45.226;5.798;2023-06-19T10:01:57;8.77;;;6.57;;
14965;SDS011;7577;45.226;5.798;2023-06-19T10:04:27;7.67;;;5.87;;
14965;SDS011;7577;45.226;5.798;2023-06-19T10:06:57;7.17;;;6.00;;
14965;SDS011;7577;45.226;5.798;2023-06-19T10:09:32;11.40;;;6.50;;
14965;SDS011;7577;45.226;5.798;2023-06-19T10:12:01;9.07;;;7.17;;
14965;SDS011;7577;45.226;5.798;2023-06-19T10:14:44;9.07;;;6.93;;
14965;SDS011;7577;45.226;5.798;2023-06-19T10:17:09;10.57;;;8.00;;
14965;SDS011;7577;45.226;5.798;2023-06-19T10:19:39;12.37;;;9.33;;
14965;SDS011;7577;45.226;5.798;2023-06-19T10:22:22;15.47;;;10.80;;
14965;SDS011;7577;45.226;5.798;2023-06-19T10:24:53;21.07;;;15.00;;
14965;SDS011;7577;45.226;5.798;2023-06-19T10:27:33;21.87;;;15.07;;
14965;SDS011;7577;45.226;5.798;2023-06-19T10:30:06;22.80;;;14.97;;
14965;SDS011;7577;45.226;5.798;2023-06-19T10:32:41;24.33;;;17.40;;
14965;SDS011;7577;45.226;5.798;2023-06-19T10:35:11;25.73;;;16.20;;
14965;SDS011;7577;45.226;5.798;2023-06-19T10:37:42;23.60;;;16.90;;
14965;SDS011;7577;45.226;5.798;2023-06-19T10:40:13;24.07;;;16.20;;
14965;SDS011;7577;45.226;5.798;2023-06-19T10:42:43;24.30;;;16.47;;
14965;SDS011;7577;45.226;5.798;2023-06-19T10:45:14;25.83;;;17.00;;
14965;SDS011;7577;45.226;5.798;2023-06-19T10:47:44;21.00;;;15.67;;
14965;SDS011;7577;45.226;5.798;2023-06-19T10:50:15;19.00;;;14.13;;
14965;SDS011;7577;45.226;5.798;2023-06-19T10:52:45;18.83;;;14.43;;
14965;SDS011;7577;45.226;5.798;2023-06-19T10:55:16;18.73;;;13.87;;
14965;SDS011;7577;45.226;5.798;2023-06-19T10:57:46;18.03;;;12.93;;
14965;SDS011;7577;45.226;5.798;2023-06-19T11:00:25;18.23;;;12.73;;
14965;SDS011;7577;45.226;5.798;2023-06-19T11:02:56;16.97;;;12.80;;
14965;SDS011;7577;45.226;5.798;2023-06-19T11:05:34;15.67;;;11.37;;
14965;SDS011;7577;45.226;5.798;2023-06-19T11:08:05;14.00;;;11.20;;
14965;SDS011;7577;45.226;5.798;2023-06-19T11:10:35;15.00;;;11.53;;
14965;SDS011;7577;45.226;5.798;2023-06-19T11:13:05;11.93;;;10.70;;
14965;SDS011;7577;45.226;5.798;2023-06-19T11:15:35;14.07;;;11.40;;
14965;SDS011;7577;45.226;5.798;2023-06-19T11:18:05;11.40;;;9.40;;
14965;SDS011;7577;45.226;5.798;2023-06-19T11:20:43;13.73;;;10.30;;
14965;SDS011;7577;45.226;5.798;2023-06-19T11:23:25;12.53;;;10.67;;
14965;SDS011;7577;45.226;5.798;2023-06-19T11:26:01;13.57;;;10.87;;
14965;SDS011;7577;45.226;5.798;2023-06-19T11:28:38;12.63;;;10.33;;
14965;SDS011;7577;45.226;5.798;2023-06-19T11:31:09;12.60;;;9.60;;
14965;SDS011;7577;45.226;5.798;2023-06-19T11:33:39;12.57;;;9.53;;
14965;SDS011;7577;45.226;5.798;2023-06-19T11:36:09;9.93;;;8.93;;
14965;SDS011;7577;45.226;5.798;2023-06-19T11:38:39;11.93;;;9.80;;
14965;SDS011;7577;45.226;5.798;2023-06-19T11:41:11;10.37;;;8.97;;
14965;SDS011;7577;45.226;5.798;2023-06-19T11:43:48;9.90;;;8.40;;
14965;SDS011;7577;45.226;5.798;2023-06-19T11:46:18;11.30;;;8.57;;
14965;SDS011;7577;45.226;5.798;2023-06-19T11:48:50;10.33;;;8.90;;
14965;SDS011;7577;45.226;5.798;2023-06-19T11:51:20;9.60;;;8.37;;
14965;SDS011;7577;45.226;5.798;2023-06-19T11:53:51;8.93;;;7.97;;
14965;SDS011;7577;45.226;5.798;2023-06-19T11:56:21;9.47;;;8.47;;
14965;SDS011;7577;45.226;5.798;2023-06-19T11:58:58;9.00;;;8.10;;
14965;SDS011;7577;45.226;5.798;2023-06-19T12:01:31;9.80;;;8.20;;
14965;SDS011;7577;45.226;5.798;2023-06-19T12:04:02;8.43;;;7.63;;
14965;SDS011;7577;45.226;5.798;2023-06-19T12:06:33;8.70;;;7.83;;
14965;SDS011;7577;45.226;5.798;2023-06-19T12:09:04;9.40;;;8.50;;
14965;SDS011;7577;45.226;5.798;2023-06-19T12:11:34;8.93;;;8.03;;
14965;SDS011;7577;45.226;5.798;2023-06-19T12:14:05;8.37;;;7.37;;
14965;SDS011;7577;45.226;5.798;2023-06-19T12:16:35;8.13;;;7.33;;
14965;SDS011;7577;45.226;5.798;2023-06-19T12:19:05;8.17;;;7.37;;
14965;SDS011;7577;45.226;5.798;2023-06-19T12:21:35;7.80;;;7.03;;
14965;SDS011;7577;45.226;5.798;2023-06-19T12:24:05;8.27;;;7.37;;
14965;SDS011;7577;45.226;5.798;2023-06-19T12:26:43;7.53;;;6.70;;
14965;SDS011;7577;45.226;5.798;2023-06-19T12:29:14;8.17;;;7.37;;
14965;SDS011;7577;45.226;5.798;2023-06-19T12:31:44;8.33;;;7.40;;
14965;SDS011;7577;45.226;5.798;2023-06-19T12:34:14;7.57;;;6.87;;
14965;SDS011;7577;45.226;5.798;2023-06-19T12:36:45;7.70;;;6.97;;
14965;SDS011;7577;45.226;5.798;2023-06-19T12:39:15;7.40;;;6.70;;
14965;SDS011;7577;45.226;5.798;2023-06-19T12:41:53;7.70;;;7.00;;
14965;SDS011;7577;45.226;5.798;2023-06-19T12:44:23;8.50;;;7.00;;
14965;SDS011;7577;45.226;5.798;2023-06-19T12:47:04;7.87;;;7.07;;
14965;SDS011;7577;45.226;5.798;2023-06-19T12:49:34;7.40;;;6.70;;
14965;SDS011;7577;45.226;5.798;2023-06-19T12:52:06;7.83;;;7.00;;
14965;SDS011;7577;45.226;5.798;2023-06-19T12:54:37;7.50;;;6.60;;
14965;SDS011;7577;45.226;5.798;2023-06-19T12:57:08;6.93;;;6.30;;
14965;SDS011;7577;45.226;5.798;2023-06-19T12:59:39;7.17;;;6.47;;
14965;SDS011;7577;45.226;5.798;2023-06-19T13:02:09;7.70;;;6.90;;
14965;SDS011;7577;45.226;5.798;2023-06-19T13:04:39;7.40;;;6.70;;
14965;SDS011;7577;45.226;5.798;2023-06-19T13:07:09;6.87;;;6.27;;
14965;SDS011;7577;45.226;5.798;2023-06-19T13:09:40;7.20;;;6.57;;
14965;SDS011;7577;45.226;5.798;2023-06-19T13:12:11;8.23;;;6.73;;
14965;SDS011;7577;45.226;5.798;2023-06-19T13:14:41;6.87;;;6.10;;
14965;SDS011;7577;45.226;5.798;2023-06-19T13:17:11;6.57;;;5.90;;
14965;SDS011;7577;45.226;5.798;2023-06-19T13:19:41;7.17;;;6.47;;
14965;SDS011;7577;45.226;5.798;2023-06-19T13:22:21;7.40;;;6.47;;
14965;SDS011;7577;45.226;5.798;2023-06-19T13:24:51;7.57;;;6.70;;
14965;SDS011;7577;45.226;5.798;2023-06-19T13:27:21;7.37;;;6.37;;
14965;SDS011;7577;45.226;5.798;2023-06-19T13:29:59;7.03;;;6.40;;
14965;SDS011;7577;45.226;5.798;2023-06-19T13:32:30;7.37;;;6.37;;
14965;SDS011;7577;45.226;5.798;2023-06-19T13:35:00;7.10;;;6.40;;
14965;SDS011;7577;45.226;5.798;2023-06-19T13:37:38;6.93;;;6.03;;
14965;SDS011;7577;45.226;5.798;2023-06-19T13:40:09;6.63;;;6.03;;
14965;SDS011;7577;45.226;5.798;2023-06-19T13:42:40;6.93;;;6.00;;
14965;SDS011;7577;45.226;5.798;2023-06-19T13:45:10;7.43;;;5.80;;
14965;SDS011;7577;45.226;5.798;2023-06-19T13:47:40;7.97;;;6.03;;
14965;SDS011;7577;45.226;5.798;2023-06-19T13:50:11;8.13;;;6.67;;
14965;SDS011;7577;45.226;5.798;2023-06-19T13:52:43;6.90;;;5.70;;
14965;SDS011;7577;45.226;5.798;2023-06-19T13:55:14;6.60;;;6.10;;
14965;SDS011;7577;45.226;5.798;2023-06-19T13:57:54;6.50;;;5.73;;
14965;SDS011;7577;45.226;5.798;2023-06-19T14:00:24;7.73;;;5.97;;
14965;SDS011;7577;45.226;5.798;2023-06-19T14:02:54;6.40;;;5.80;;
14965;SDS011;7577;45.226;5.798;2023-06-19T14:05:24;7.73;;;7.00;;
14965;SDS011;7577;45.226;5.798;2023-06-19T14:07:54;7.43;;;6.60;;
14965;SDS011;7577;45.226;5.798;2023-06-19T14:10:25;8.57;;;6.43;;
14965;SDS011;7577;45.226;5.798;2023-06-19T14:12:55;8.53;;;6.60;;
14965;SDS011;7577;45.226;5.798;2023-06-19T14:15:25;6.50;;;5.90;;
14965;SDS011;7577;45.226;5.798;2023-06-19T14:17:55;7.47;;;6.70;;
14965;SDS011;7577;45.226;5.798;2023-06-19T14:20:25;6.97;;;6.30;;
14965;SDS011;7577;45.226;5.798;2023-06-19T14:22:55;6.73;;;6.17;;
14965;SDS011;7577;45.226;5.798;2023-06-19T14:25:25;8.63;;;6.27;;
14965;SDS011;7577;45.226;5.798;2023-06-19T14:27:57;8.13;;;6.30;;
14965;SDS011;7577;45.226;5.798;2023-06-19T14:30:34;7.17;;;6.47;;
14965;SDS011;7577;45.226;5.798;2023-06-19T14:33:04;6.57;;;5.97;;
14965;SDS011;7577;45.226;5.798;2023-06-19T14:35:36;6.83;;;6.00;;
14965;SDS011;7577;45.226;5.798;2023-06-19T14:38:06;7.33;;;5.90;;
14965;SDS011;7577;45.226;5.798;2023-06-19T14:40:36;7.97;;;6.10;;
14965;SDS011;7577;45.226;5.798;2023-06-19T14:43:06;7.33;;;6.60;;
14965;SDS011;7577;45.226;5.798;2023-06-19T14:45:36;8.80;;;6.03;;
14965;SDS011;7577;45.226;5.798;2023-06-19T14:48:08;6.67;;;6.00;;
14965;SDS011;7577;45.226;5.798;2023-06-19T14:50:38;7.37;;;6.07;;
14965;SDS011;7577;45.226;5.798;2023-06-19T14:53:16;6.53;;;5.87;;
14965;SDS011;7577;45.226;5.798;2023-06-19T14:55:46;6.17;;;5.57;;
14965;SDS011;7577;45.226;5.798;2023-06-19T14:58:16;7.77;;;5.70;;
14965;SDS011;7577;45.226;5.798;2023-06-19T15:00:46;6.57;;;5.80;;
14965;SDS011;7577;45.226;5.798;2023-06-19T15:03:17;6.80;;;6.10;;
14965;SDS011;7577;45.226;5.798;2023-06-19T15:05:47;6.73;;;5.67;;
14965;SDS011;7577;45.226;5.798;2023-06-19T15:08:17;6.37;;;5.73;;
14965;SDS011;7577;45.226;5.798;2023-06-19T15:10:49;8.43;;;5.97;;
14965;SDS011;7577;45.226;5.798;2023-06-19T15:13:27;6.57;;;5.60;;
14965;SDS011;7577;45.226;5.798;2023-06-19T15:15:57;6.70;;;5.20;;
14965;SDS011;7577;45.226;5.798;2023-06-19T15:18:27;6.63;;;5.93;;
14965;SDS011;7577;45.226;5.798;2023-06-19T15:20:57;6.73;;;5.23;;
14965;SDS011;7577;45.226;5.798;2023-06-19T15:23:27;6.00;;;5.40;;
14965;SDS011;7577;45.226;5.798;2023-06-19T15:25:57;6.30;;;5.40;;